sensor_id;sensor_type;location;lat;lon;timestamp;pressure;altitude;pressure_sealevel;temperature;humidity
40864;BME280;26582;47.524;19.012;2024-02-23T00:02:22;97552.53;;;9.63;56.83
40864;BME280;26582;47.524;19.012;2024-02-23T00:04:48;97557.53;;;9.58;57.01
40864;BME280;26582;47.524;19.012;2024-02-23T00:07:16;97551.03;;;9.60;56.96
40864;BME280;26582;47.524;19.012;2024-02-23T00:09:43;97556.13;;;9.70;56.53
40864;BME280;26582;47.524;19.012;2024-02-23T00:12:10;97554.47;;;9.69;56.46
40864;BME280;26582;47.524;19.012;2024-02-23T00:14:37;97563.38;;;9.84;56.24
40864;BME280;26582;47.524;19.012;2024-02-23T00:17:03;97545.97;;;9.74;56.48
40864;BME280;26582;47.524;19.012;2024-02-23T00:19:30;97554.25;;;9.79;56.58
40864;BME280;26582;47.524;19.012;2024-02-23T00:21:57;97561.41;;;9.78;56.44
40864;BME280;26582;47.524;19.012;2024-02-23T00:24:26;97555.28;;;9.78;56.70
40864;BME280;26582;47.524;19.012;2024-02-23T00:26:52;97561.94;;;9.74;56.70
40864;BME280;26582;47.524;19.012;2024-02-23T00:29:19;97555.56;;;9.83;56.66
40864;BME280;26582;47.524;19.012;2024-02-23T00:31:46;97561.13;;;9.96;56.82
40864;BME280;26582;47.524;19.012;2024-02-23T00:34:13;97566.44;;;9.96;56.29
40864;BME280;26582;47.524;19.012;2024-02-23T00:36:41;97560.59;;;9.78;56.55
40864;BME280;26582;47.524;19.012;2024-02-23T00:39:10;97553.22;;;9.88;56.61
40864;BME280;26582;47.524;19.012;2024-02-23T00:41:38;97552.41;;;9.87;56.57
40864;BME280;26582;47.524;19.012;2024-02-23T00:44:04;97551.16;;;9.98;56.32
40864;BME280;26582;47.524;19.012;2024-02-23T00:46:31;97552.44;;;10.02;56.47
40864;BME280;26582;47.524;19.012;2024-02-23T00:48:58;97553.44;;;10.01;56.31
40864;BME280;26582;47.524;19.012;2024-02-23T00:51:25;97547.69;;;9.98;56.32
40864;BME280;26582;47.524;19.012;2024-02-23T00:53:52;97551.09;;;10.06;56.53
40864;BME280;26582;47.524;19.012;2024-02-23T00:56:18;97541.81;;;10.02;56.45
40864;BME280;26582;47.524;19.012;2024-02-23T00:58:46;97543.63;;;10.02;56.87
40864;BME280;26582;47.524;19.012;2024-02-23T01:01:13;97537.16;;;10.04;56.98
40864;BME280;26582;47.524;19.012;2024-02-23T01:03:40;97529.34;;;10.03;57.00
40864;BME280;26582;47.524;19.012;2024-02-23T01:06:06;97550.50;;;9.96;57.80
40864;BME280;26582;47.524;19.012;2024-02-23T01:08:33;97534.31;;;9.83;58.67
40864;BME280;26582;47.524;19.012;2024-02-23T01:11:01;97529.50;;;9.78;59.28
40864;BME280;26582;47.524;19.012;2024-02-23T01:13:27;97531.81;;;9.81;59.75
40864;BME280;26582;47.524;19.012;2024-02-23T01:15:55;97527.34;;;9.82;60.40
40864;BME280;26582;47.524;19.012;2024-02-23T01:18:22;97524.69;;;9.82;60.61
40864;BME280;26582;47.524;19.012;2024-02-23T01:20:49;97522.16;;;9.57;62.27
40864;BME280;26582;47.524;19.012;2024-02-23T01:23:15;97524.63;;;9.59;62.61
40864;BME280;26582;47.524;19.012;2024-02-23T01:25:42;97521.16;;;9.58;63.40
40864;BME280;26582;47.524;19.012;2024-02-23T01:28:09;97513.25;;;9.50;64.39
40864;BME280;26582;47.524;19.012;2024-02-23T01:30:35;97517.66;;;9.58;64.67
40864;BME280;26582;47.524;19.012;2024-02-23T01:33:04;97518.16;;;9.61;66.02
40864;BME280;26582;47.524;19.012;2024-02-23T01:35:31;97504.25;;;9.51;67.25
40864;BME280;26582;47.524;19.012;2024-02-23T01:37:57;97498.94;;;9.51;68.18
40864;BME280;26582;47.524;19.012;2024-02-23T01:40:24;97508.59;;;9.44;68.92
40864;BME280;26582;47.524;19.012;2024-02-23T01:43:00;97500.59;;;9.21;71.13
40864;BME280;26582;47.524;19.012;2024-02-23T01:45:27;97503.56;;;9.18;72.72
40864;BME280;26582;47.524;19.012;2024-02-23T01:47:53;97499.47;;;9.07;73.44
40864;BME280;26582;47.524;19.012;2024-02-23T01:50:22;97501.66;;;9.04;75.00
40864;BME280;26582;47.524;19.012;2024-02-23T01:52:49;97500.19;;;8.93;75.63
40864;BME280;26582;47.524;19.012;2024-02-23T01:55:17;97482.47;;;8.85;76.12
40864;BME280;26582;47.524;19.012;2024-02-23T01:57:45;97482.94;;;8.89;76.61
40864;BME280;26582;47.524;19.012;2024-02-23T02:00:16;97497.88;;;8.98;76.88
40864;BME280;26582;47.524;19.012;2024-02-23T02:02:48;97495.56;;;8.87;77.58
40864;BME280;26582;47.524;19.012;2024-02-23T02:05:16;97493.22;;;8.92;77.61
40864;BME280;26582;47.524;19.012;2024-02-23T02:07:45;97488.25;;;8.89;77.67
40864;BME280;26582;47.524;19.012;2024-02-23T02:10:13;97497.00;;;8.98;77.77
40864;BME280;26582;47.524;19.012;2024-02-23T02:12:40;97493.84;;;9.02;77.06
40864;BME280;26582;47.524;19.012;2024-02-23T02:15:07;97496.16;;;9.05;77.52
40864;BME280;26582;47.524;19.012;2024-02-23T02:17:34;97495.22;;;8.98;77.74
40864;BME280;26582;47.524;19.012;2024-02-23T02:20:03;97496.53;;;8.94;77.96
40864;BME280;26582;47.524;19.012;2024-02-23T02:22:32;97491.22;;;8.94;78.33
40864;BME280;26582;47.524;19.012;2024-02-23T02:25:00;97489.41;;;8.95;78.94
40864;BME280;26582;47.524;19.012;2024-02-23T02:27:27;97478.81;;;8.86;78.38
40864;BME280;26582;47.524;19.012;2024-02-23T02:29:54;97489.09;;;8.89;78.80
40864;BME280;26582;47.524;19.012;2024-02-23T02:32:21;97495.22;;;8.90;79.66
40864;BME280;26582;47.524;19.012;2024-02-23T02:34:47;97488.91;;;8.91;80.18
40864;BME280;26582;47.524;19.012;2024-02-23T02:37:14;97487.56;;;8.95;80.44
40864;BME280;26582;47.524;19.012;2024-02-23T02:39:41;97491.94;;;8.88;79.80
40864;BME280;26582;47.524;19.012;2024-02-23T02:42:09;97492.75;;;8.88;81.48
40864;BME280;26582;47.524;19.012;2024-02-23T02:44:36;97492.56;;;8.90;81.44
40864;BME280;26582;47.524;19.012;2024-02-23T02:47:03;97499.22;;;8.86;82.19
40864;BME280;26582;47.524;19.012;2024-02-23T02:49:29;97504.56;;;8.78;83.56
40864;BME280;26582;47.524;19.012;2024-02-23T02:51:56;97494.28;;;8.75;83.82
40864;BME280;26582;47.524;19.012;2024-02-23T02:54:23;97498.56;;;8.76;84.56
40864;BME280;26582;47.524;19.012;2024-02-23T02:56:49;97500.06;;;8.78;84.77
40864;BME280;26582;47.524;19.012;2024-02-23T02:59:20;97504.91;;;8.67;86.37
40864;BME280;26582;47.524;19.012;2024-02-23T03:01:47;97505.09;;;8.57;89.22
40864;BME280;26582;47.524;19.012;2024-02-23T03:04:14;97515.41;;;8.52;88.23
40864;BME280;26582;47.524;19.012;2024-02-23T03:06:41;97498.97;;;8.56;87.82
40864;BME280;26582;47.524;19.012;2024-02-23T03:09:07;97509.91;;;8.53;89.29
40864;BME280;26582;47.524;19.012;2024-02-23T03:11:34;97506.28;;;8.46;89.50
40864;BME280;26582;47.524;19.012;2024-02-23T03:14:00;97503.97;;;8.51;92.00
40864;BME280;26582;47.524;19.012;2024-02-23T03:16:29;97503.97;;;8.51;91.73
40864;BME280;26582;47.524;19.012;2024-02-23T03:18:56;97509.91;;;8.53;92.84
40864;BME280;26582;47.524;19.012;2024-02-23T03:21:23;97508.94;;;8.46;92.96
40864;BME280;26582;47.524;19.012;2024-02-23T03:23:50;97516.88;;;8.54;94.05
40864;BME280;26582;47.524;19.012;2024-02-23T03:26:17;97518.19;;;8.50;93.11
40864;BME280;26582;47.524;19.012;2024-02-23T03:28:43;97523.19;;;8.53;94.40
40864;BME280;26582;47.524;19.012;2024-02-23T03:31:10;97524.34;;;8.43;94.49
40864;BME280;26582;47.524;19.012;2024-02-23T03:33:38;97518.53;;;8.31;94.94
40864;BME280;26582;47.524;19.012;2024-02-23T03:36:05;97518.53;;;8.47;96.12
40864;BME280;26582;47.524;19.012;2024-02-23T03:38:32;97525.84;;;8.37;94.83
40864;BME280;26582;47.524;19.012;2024-02-23T03:40:59;97517.72;;;8.30;95.50
40864;BME280;26582;47.524;19.012;2024-02-23T03:43:26;97522.84;;;8.40;95.16
40864;BME280;26582;47.524;19.012;2024-02-23T03:45:52;97522.19;;;8.38;94.65
40864;BME280;26582;47.524;19.012;2024-02-23T03:48:19;97516.22;;;8.44;94.12
40864;BME280;26582;47.524;19.012;2024-02-23T03:50:47;97521.88;;;8.41;94.80
40864;BME280;26582;47.524;19.012;2024-02-23T03:53:13;97520.19;;;8.40;93.89
40864;BME280;26582;47.524;19.012;2024-02-23T03:55:40;97510.56;;;8.31;95.78
40864;BME280;26582;47.524;19.012;2024-02-23T03:58:07;97518.22;;;8.42;95.85
40864;BME280;26582;47.524;19.012;2024-02-23T04:00:34;97521.38;;;8.38;95.52
40864;BME280;26582;47.524;19.012;2024-02-23T04:03:00;97516.56;;;8.41;95.98
40864;BME280;26582;47.524;19.012;2024-02-23T04:05:27;97517.72;;;8.39;96.33
40864;BME280;26582;47.524;19.012;2024-02-23T04:07:55;97519.03;;;8.43;95.99
40864;BME280;26582;47.524;19.012;2024-02-23T04:10:21;97519.00;;;8.34;95.34
40864;BME280;26582;47.524;19.012;2024-02-23T04:12:48;97513.25;;;8.39;94.36
40864;BME280;26582;47.524;19.012;2024-02-23T04:15:15;97526.81;;;8.44;94.33
40864;BME280;26582;47.524;19.012;2024-02-23T04:17:41;97525.00;;;8.53;94.71
40864;BME280;26582;47.524;19.012;2024-02-23T04:20:09;97519.19;;;8.49;93.85
40864;BME280;26582;47.524;19.012;2024-02-23T04:22:36;97533.97;;;8.52;94.08
40864;BME280;26582;47.524;19.012;2024-02-23T04:25:04;97519.66;;;8.61;93.56
40864;BME280;26582;47.524;19.012;2024-02-23T04:27:31;97517.38;;;8.58;94.55
40864;BME280;26582;47.524;19.012;2024-02-23T04:29:58;97519.84;;;8.59;93.68
40864;BME280;26582;47.524;19.012;2024-02-23T04:32:25;97521.53;;;8.44;92.66
40864;BME280;26582;47.524;19.012;2024-02-23T04:34:51;97515.06;;;8.39;93.98
40864;BME280;26582;47.524;19.012;2024-02-23T04:37:18;97524.69;;;8.48;94.19
40864;BME280;26582;47.524;19.012;2024-02-23T04:39:45;97522.19;;;8.62;92.68
40864;BME280;26582;47.524;19.012;2024-02-23T04:42:13;97525.19;;;8.51;91.85
40864;BME280;26582;47.524;19.012;2024-02-23T04:44:41;97514.22;;;8.54;92.90
40864;BME280;26582;47.524;19.012;2024-02-23T04:47:07;97520.03;;;8.50;92.30
40864;BME280;26582;47.524;19.012;2024-02-23T04:49:34;97515.38;;;8.44;92.65
40864;BME280;26582;47.524;19.012;2024-02-23T04:52:01;97524.50;;;8.57;92.52
40864;BME280;26582;47.524;19.012;2024-02-23T04:54:27;97517.88;;;8.61;92.59
40864;BME280;26582;47.524;19.012;2024-02-23T04:56:54;97520.84;;;8.58;92.14
40864;BME280;26582;47.524;19.012;2024-02-23T04:59:22;97512.72;;;8.68;91.84
40864;BME280;26582;47.524;19.012;2024-02-23T05:01:49;97521.34;;;8.54;91.38
40864;BME280;26582;47.524;19.012;2024-02-23T05:04:16;97526.34;;;8.57;90.71
40864;BME280;26582;47.524;19.012;2024-02-23T05:06:42;97521.03;;;8.57;90.16
40864;BME280;26582;47.524;19.012;2024-02-23T05:09:09;97532.28;;;8.67;89.77
40864;BME280;26582;47.524;19.012;2024-02-23T05:11:37;97525.66;;;8.63;91.90
40864;BME280;26582;47.524;19.012;2024-02-23T05:14:04;97529.13;;;8.55;89.48
40864;BME280;26582;47.524;19.012;2024-02-23T05:16:32;97540.72;;;8.71;89.89
40864;BME280;26582;47.524;19.012;2024-02-23T05:18:59;97550.03;;;8.67;90.21
40864;BME280;26582;47.524;19.012;2024-02-23T05:21:26;97544.56;;;8.60;91.42
40864;BME280;26582;47.524;19.012;2024-02-23T05:23:52;97554.38;;;8.51;91.96
40864;BME280;26582;47.524;19.012;2024-02-23T05:26:19;97551.03;;;8.57;91.28
40864;BME280;26582;47.524;19.012;2024-02-23T05:28:46;97549.38;;;8.56;87.94
40864;BME280;26582;47.524;19.012;2024-02-23T05:31:13;97554.66;;;8.65;87.04
40864;BME280;26582;47.524;19.012;2024-02-23T05:33:41;97558.00;;;8.67;87.08
40864;BME280;26582;47.524;19.012;2024-02-23T05:36:08;97574.22;;;8.72;85.73
40864;BME280;26582;47.524;19.012;2024-02-23T05:38:34;97567.44;;;8.77;86.31
40864;BME280;26582;47.524;19.012;2024-02-23T05:41:01;97577.06;;;8.78;86.21
40864;BME280;26582;47.524;19.012;2024-02-23T05:43:28;97576.03;;;8.71;85.88
40864;BME280;26582;47.524;19.012;2024-02-23T05:45:54;97582.81;;;8.98;85.61
40864;BME280;26582;47.524;19.012;2024-02-23T05:48:24;97595.28;;;8.81;86.77
40864;BME280;26582;47.524;19.012;2024-02-23T05:50:52;97600.25;;;8.76;88.75
40864;BME280;26582;47.524;19.012;2024-02-23T05:53:19;97608.91;;;8.62;89.74
40864;BME280;26582;47.524;19.012;2024-02-23T05:55:45;97605.44;;;8.61;91.16
40864;BME280;26582;47.524;19.012;2024-02-23T05:58:12;97609.72;;;8.71;91.22
40864;BME280;26582;47.524;19.012;2024-02-23T06:00:41;97614.69;;;8.49;92.92
40864;BME280;26582;47.524;19.012;2024-02-23T06:03:08;97627.31;;;8.47;94.38
40864;BME280;26582;47.524;19.012;2024-02-23T06:05:35;97631.31;;;8.51;95.95
40864;BME280;26582;47.524;19.012;2024-02-23T06:08:03;97633.22;;;8.33;95.83
40864;BME280;26582;47.524;19.012;2024-02-23T06:10:30;97639.09;;;8.53;95.92
40864;BME280;26582;47.524;19.012;2024-02-23T06:12:56;97631.47;;;8.42;97.43
40864;BME280;26582;47.524;19.012;2024-02-23T06:15:23;97640.50;;;8.23;99.04
40864;BME280;26582;47.524;19.012;2024-02-23T06:17:50;97633.75;;;8.45;97.23
40864;BME280;26582;47.524;19.012;2024-02-23T06:20:16;97634.91;;;8.50;97.71
40864;BME280;26582;47.524;19.012;2024-02-23T06:22:45;97645.88;;;8.55;98.10
40864;BME280;26582;47.524;19.012;2024-02-23T06:25:13;97647.47;;;8.24;98.78
40864;BME280;26582;47.524;19.012;2024-02-23T06:27:40;97650.94;;;8.16;98.77
40864;BME280;26582;47.524;19.012;2024-02-23T06:30:07;97658.56;;;8.11;100.00
40864;BME280;26582;47.524;19.012;2024-02-23T06:32:36;97651.75;;;8.08;100.00
40864;BME280;26582;47.524;19.012;2024-02-23T06:35:03;97658.56;;;8.11;100.00
40864;BME280;26582;47.524;19.012;2024-02-23T06:37:31;97659.91;;;8.15;100.00
40864;BME280;26582;47.524;19.012;2024-02-23T06:39:58;97664.38;;;8.23;100.00
40864;BME280;26582;47.524;19.012;2024-02-23T06:42:26;97661.41;;;8.26;100.00
40864;BME280;26582;47.524;19.012;2024-02-23T06:44:53;97656.09;;;8.26;100.00
40864;BME280;26582;47.524;19.012;2024-02-23T06:47:20;97652.91;;;8.14;100.00
40864;BME280;26582;47.524;19.012;2024-02-23T06:49:46;97668.50;;;8.17;100.00
40864;BME280;26582;47.524;19.012;2024-02-23T06:52:13;97659.72;;;8.17;100.00
40864;BME280;26582;47.524;19.012;2024-02-23T06:54:39;97657.72;;;8.10;100.00
40864;BME280;26582;47.524;19.012;2024-02-23T06:57:06;97664.06;;;8.34;100.00
40864;BME280;26582;47.524;19.012;2024-02-23T06:59:34;97667.50;;;8.18;100.00
40864;BME280;26582;47.524;19.012;2024-02-23T07:02:01;97658.47;;;8.37;100.00
40864;BME280;26582;47.524;19.012;2024-02-23T07:04:29;97663.06;;;8.35;100.00
40864;BME280;26582;47.524;19.012;2024-02-23T07:06:56;97669.84;;;8.21;100.00
40864;BME280;26582;47.524;19.012;2024-02-23T07:09:22;97673.00;;;8.33;100.00
40864;BME280;26582;47.524;19.012;2024-02-23T07:11:49;97671.59;;;8.47;100.00
40864;BME280;26582;47.524;19.012;2024-02-23T07:14:16;97673.50;;;8.28;100.00
40864;BME280;26582;47.524;19.012;2024-02-23T07:16:44;97674.91;;;8.41;100.00
40864;BME280;26582;47.524;19.012;2024-02-23T07:19:11;97685.41;;;8.24;100.00
40864;BME280;26582;47.524;19.012;2024-02-23T07:21:38;97687.53;;;8.13;100.00
40864;BME280;26582;47.524;19.012;2024-02-23T07:24:05;97691.53;;;8.17;100.00
40864;BME280;26582;47.524;19.012;2024-02-23T07:26:32;97690.25;;;8.21;100.00
40864;BME280;26582;47.524;19.012;2024-02-23T07:28:58;97688.31;;;8.55;100.00
40864;BME280;26582;47.524;19.012;2024-02-23T07:31:25;97691.72;;;8.23;100.00
40864;BME280;26582;47.524;19.012;2024-02-23T07:33:54;97693.41;;;8.32;100.00
40864;BME280;26582;47.524;19.012;2024-02-23T07:36:20;97696.22;;;8.31;100.00
40864;BME280;26582;47.524;19.012;2024-02-23T07:38:47;97684.25;;;8.10;100.00
40864;BME280;26582;47.524;19.012;2024-02-23T07:41:14;97684.53;;;8.07;100.00
40864;BME280;26582;47.524;19.012;2024-02-23T07:43:43;97693.22;;;8.26;100.00
40864;BME280;26582;47.524;19.012;2024-02-23T07:46:10;97692.78;;;8.39;100.00
40864;BME280;26582;47.524;19.012;2024-02-23T07:48:36;97697.25;;;8.38;100.00
40864;BME280;26582;47.524;19.012;2024-02-23T07:51:05;97697.63;;;8.51;100.00
40864;BME280;26582;47.524;19.012;2024-02-23T07:53:31;97699.25;;;8.36;100.00
40864;BME280;26582;47.524;19.012;2024-02-23T07:55:58;97704.16;;;8.15;100.00
40864;BME280;26582;47.524;19.012;2024-02-23T07:58:27;97703.19;;;8.32;100.00
40864;BME280;26582;47.524;19.012;2024-02-23T08:00:54;97708.22;;;8.43;100.00
40864;BME280;26582;47.524;19.012;2024-02-23T08:03:22;97705.22;;;8.38;100.00
40864;BME280;26582;47.524;19.012;2024-02-23T08:05:48;97700.63;;;8.56;100.00
40864;BME280;26582;47.524;19.012;2024-02-23T08:08:16;97712.22;;;8.47;100.00
40864;BME280;26582;47.524;19.012;2024-02-23T08:10:43;97711.53;;;8.37;100.00
40864;BME280;26582;47.524;19.012;2024-02-23T08:13:10;97711.56;;;8.61;100.00
40864;BME280;26582;47.524;19.012;2024-02-23T08:15:37;97718.09;;;8.25;100.00
40864;BME280;26582;47.524;19.012;2024-02-23T08:18:04;97719.47;;;8.37;100.00
40864;BME280;26582;47.524;19.012;2024-02-23T08:20:30;97721.47;;;8.43;100.00
40864;BME280;26582;47.524;19.012;2024-02-23T08:22:57;97719.94;;;8.32;100.00
40864;BME280;26582;47.524;19.012;2024-02-23T08:25:25;97715.94;;;8.20;100.00
40864;BME280;26582;47.524;19.012;2024-02-23T08:27:54;97709.69;;;8.38;100.00
40864;BME280;26582;47.524;19.012;2024-02-23T08:30:21;97721.41;;;8.27;100.00
40864;BME280;26582;47.524;19.012;2024-02-23T08:32:47;97716.25;;;8.17;100.00
40864;BME280;26582;47.524;19.012;2024-02-23T08:35:15;97723.78;;;8.38;100.00
40864;BME280;26582;47.524;19.012;2024-02-23T08:37:42;97730.78;;;8.47;100.00
40864;BME280;26582;47.524;19.012;2024-02-23T08:40:09;97729.84;;;8.22;100.00
40864;BME280;26582;47.524;19.012;2024-02-23T08:42:38;97728.81;;;8.57;100.00
40864;BME280;26582;47.524;19.012;2024-02-23T08:45:05;97735.78;;;8.58;100.00
40864;BME280;26582;47.524;19.012;2024-02-23T08:47:32;97744.06;;;8.63;100.00
40864;BME280;26582;47.524;19.012;2024-02-23T08:50:01;97742.91;;;8.58;100.00
40864;BME280;26582;47.524;19.012;2024-02-23T08:52:28;97740.56;;;8.55;100.00
40864;BME280;26582;47.524;19.012;2024-02-23T08:54:54;97745.03;;;8.54;100.00
40864;BME280;26582;47.524;19.012;2024-02-23T08:57:21;97745.22;;;8.61;100.00
40864;BME280;26582;47.524;19.012;2024-02-23T08:59:50;97750.03;;;8.57;100.00
40864;BME280;26582;47.524;19.012;2024-02-23T09:02:16;97754.19;;;8.60;100.00
40864;BME280;26582;47.524;19.012;2024-02-23T09:04:44;97746.38;;;8.58;100.00
40864;BME280;26582;47.524;19.012;2024-02-23T09:07:11;97748.56;;;8.71;100.00
40864;BME280;26582;47.524;19.012;2024-02-23T09:09:37;97751.41;;;8.86;100.00
40864;BME280;26582;47.524;19.012;2024-02-23T09:12:05;97754.69;;;8.72;100.00
40864;BME280;26582;47.524;19.012;2024-02-23T09:14:35;97753.19;;;8.69;100.00
40864;BME280;26582;47.524;19.012;2024-02-23T09:17:04;97761.78;;;8.55;100.00
40864;BME280;26582;47.524;19.012;2024-02-23T09:19:33;97759.84;;;8.73;100.00
40864;BME280;26582;47.524;19.012;2024-02-23T09:22:00;97760.53;;;8.83;100.00
40864;BME280;26582;47.524;19.012;2024-02-23T09:24:27;97764.53;;;8.96;100.00
40864;BME280;26582;47.524;19.012;2024-02-23T09:26:54;97760.03;;;8.80;100.00
40864;BME280;26582;47.524;19.012;2024-02-23T09:29:21;97756.88;;;9.01;100.00
40864;BME280;26582;47.524;19.012;2024-02-23T09:31:48;97761.06;;;9.03;100.00
40864;BME280;26582;47.524;19.012;2024-02-23T09:34:16;97762.34;;;8.91;98.14
40864;BME280;26582;47.524;19.012;2024-02-23T09:36:43;97756.72;;;9.02;99.07
40864;BME280;26582;47.524;19.012;2024-02-23T09:39:10;97762.34;;;9.07;99.53
40864;BME280;26582;47.524;19.012;2024-02-23T09:41:38;97757.56;;;8.95;99.12
40864;BME280;26582;47.524;19.012;2024-02-23T09:44:05;97758.06;;;9.14;99.84
40864;BME280;26582;47.524;19.012;2024-02-23T09:46:36;97763.38;;;9.14;100.00
40864;BME280;26582;47.524;19.012;2024-02-23T09:49:03;97761.38;;;9.00;100.00
40864;BME280;26582;47.524;19.012;2024-02-23T09:51:33;97761.22;;;8.94;99.35
40864;BME280;26582;47.524;19.012;2024-02-23T09:54:00;97764.19;;;8.91;97.91
40864;BME280;26582;47.524;19.012;2024-02-23T09:56:28;97772.00;;;9.00;98.16
40864;BME280;26582;47.524;19.012;2024-02-23T09:58:55;97768.84;;;9.21;96.58
40864;BME280;26582;47.524;19.012;2024-02-23T10:01:28;97763.03;;;9.01;96.64
40864;BME280;26582;47.524;19.012;2024-02-23T10:03:57;97779.47;;;8.88;95.05
40864;BME280;26582;47.524;19.012;2024-02-23T10:06:24;97768.69;;;8.98;96.46
40864;BME280;26582;47.524;19.012;2024-02-23T10:08:52;97778.13;;;9.17;97.91
40864;BME280;26582;47.524;19.012;2024-02-23T10:11:20;97778.97;;;9.09;97.59
40864;BME280;26582;47.524;19.012;2024-02-23T10:13:47;97777.47;;;8.82;95.75
40864;BME280;26582;47.524;19.012;2024-02-23T10:16:15;97774.63;;;8.92;99.03
40864;BME280;26582;47.524;19.012;2024-02-23T10:18:41;97776.31;;;9.26;98.77
40864;BME280;26582;47.524;19.012;2024-02-23T10:21:08;97782.25;;;8.87;98.42
40864;BME280;26582;47.524;19.012;2024-02-23T10:23:35;97780.59;;;8.86;98.43
40864;BME280;26582;47.524;19.012;2024-02-23T10:26:04;97784.09;;;8.95;97.40
40864;BME280;26582;47.524;19.012;2024-02-23T10:28:31;97786.59;;;8.96;97.52
40864;BME280;26582;47.524;19.012;2024-02-23T10:30:57;97785.25;;;8.92;95.72
40864;BME280;26582;47.524;19.012;2024-02-23T10:33:26;97780.59;;;8.86;93.72
40864;BME280;26582;47.524;19.012;2024-02-23T10:35:55;97782.94;;;9.05;93.96
40864;BME280;26582;47.524;19.012;2024-02-23T10:38:22;97790.59;;;9.41;93.65
40864;BME280;26582;47.524;19.012;2024-02-23T10:40:50;97795.25;;;9.55;92.09
40864;BME280;26582;47.524;19.012;2024-02-23T10:43:27;97792.94;;;9.36;92.36
40864;BME280;26582;47.524;19.012;2024-02-23T10:45:57;97794.72;;;9.76;93.32
40864;BME280;26582;47.524;19.012;2024-02-23T10:48:24;97790.50;;;9.90;93.43
40864;BME280;26582;47.524;19.012;2024-02-23T10:50:51;97787.13;;;10.12;92.63
40864;BME280;26582;47.524;19.012;2024-02-23T10:53:19;97793.06;;;10.31;92.37
40864;BME280;26582;47.524;19.012;2024-02-23T10:55:46;97789.59;;;10.22;91.23
40864;BME280;26582;47.524;19.012;2024-02-23T10:58:13;97789.13;;;10.18;90.96
40864;BME280;26582;47.524;19.012;2024-02-23T11:00:42;97792.94;;;10.24;91.70
40864;BME280;26582;47.524;19.012;2024-02-23T11:03:11;97795.94;;;10.13;89.28
40864;BME280;26582;47.524;19.012;2024-02-23T11:05:38;97788.94;;;10.12;91.51
40864;BME280;26582;47.524;19.012;2024-02-23T11:08:06;97789.78;;;10.29;91.18
40864;BME280;26582;47.524;19.012;2024-02-23T11:10:41;97797.78;;;10.04;92.37
40864;BME280;26582;47.524;19.012;2024-02-23T11:13:08;97791.59;;;10.12;92.04
40864;BME280;26582;47.524;19.012;2024-02-23T11:15:35;97794.41;;;10.35;91.41
40864;BME280;26582;47.524;19.012;2024-02-23T11:18:24;97793.84;;;10.48;91.19
40864;BME280;26582;47.524;19.012;2024-02-23T11:20:54;97793.69;;;10.41;91.35
40864;BME280;26582;47.524;19.012;2024-02-23T11:23:21;97789.25;;;10.64;90.10
40864;BME280;26582;47.524;19.012;2024-02-23T11:25:59;97794.25;;;10.67;88.33
40864;BME280;26582;47.524;19.012;2024-02-23T11:28:26;97788.31;;;10.80;87.40
40864;BME280;26582;47.524;19.012;2024-02-23T11:30:53;97787.16;;;10.52;88.85
40864;BME280;26582;47.524;19.012;2024-02-23T11:33:27;97789.34;;;10.48;90.99
40864;BME280;26582;47.524;19.012;2024-02-23T11:36:04;97782.66;;;10.52;88.93
40864;BME280;26582;47.524;19.012;2024-02-23T11:38:32;97786.66;;;10.56;89.29
40864;BME280;26582;47.524;19.012;2024-02-23T11:40:59;97787.66;;;10.55;90.41
40864;BME280;26582;47.524;19.012;2024-02-23T11:43:26;97787.91;;;10.68;89.20
40864;BME280;26582;47.524;19.012;2024-02-23T11:45:52;97784.84;;;10.49;88.92
40864;BME280;26582;47.524;19.012;2024-02-23T11:48:19;97776.44;;;10.91;88.54
40864;BME280;26582;47.524;19.012;2024-02-23T11:50:49;97775.31;;;10.85;89.70
40864;BME280;26582;47.524;19.012;2024-02-23T11:53:16;97768.63;;;10.66;90.50
40864;BME280;26582;47.524;19.012;2024-02-23T11:55:44;97769.16;;;10.85;91.14
40864;BME280;26582;47.524;19.012;2024-02-23T11:58:11;97763.22;;;10.75;91.13
40864;BME280;26582;47.524;19.012;2024-02-23T12:00:39;97756.22;;;10.82;90.82
40864;BME280;26582;47.524;19.012;2024-02-23T12:03:06;97766.88;;;11.05;91.13
40864;BME280;26582;47.524;19.012;2024-02-23T12:05:32;97774.50;;;10.54;90.68
40864;BME280;26582;47.524;19.012;2024-02-23T12:08:01;97773.56;;;10.38;93.12
40864;BME280;26582;47.524;19.012;2024-02-23T12:10:28;97770.38;;;10.51;92.44
40864;BME280;26582;47.524;19.012;2024-02-23T12:12:55;97764.38;;;10.49;91.53
40864;BME280;26582;47.524;19.012;2024-02-23T12:15:22;97752.47;;;10.68;90.86
40864;BME280;26582;47.524;19.012;2024-02-23T12:17:49;97753.19;;;10.85;91.25
40864;BME280;26582;47.524;19.012;2024-02-23T12:20:16;97749.91;;;11.20;89.41
40864;BME280;26582;47.524;19.012;2024-02-23T12:22:43;97759.03;;;11.26;88.92
40864;BME280;26582;47.524;19.012;2024-02-23T12:25:12;97756.97;;;11.13;89.03
40864;BME280;26582;47.524;19.012;2024-02-23T12:27:39;97762.81;;;11.32;87.76
40864;BME280;26582;47.524;19.012;2024-02-23T12:30:12;97758.09;;;10.73;87.22
40864;BME280;26582;47.524;19.012;2024-02-23T12:32:39;97760.16;;;10.63;89.71
40864;BME280;26582;47.524;19.012;2024-02-23T12:35:06;97766.16;;;10.88;89.39
40864;BME280;26582;47.524;19.012;2024-02-23T12:37:34;97770.97;;;10.61;87.82
40864;BME280;26582;47.524;19.012;2024-02-23T12:40:02;97771.22;;;10.75;87.32
40864;BME280;26582;47.524;19.012;2024-02-23T12:42:30;97770.25;;;10.76;87.67
40864;BME280;26582;47.524;19.012;2024-02-23T12:44:57;97767.28;;;10.70;88.17
40864;BME280;26582;47.524;19.012;2024-02-23T12:47:24;97770.59;;;10.95;86.91
40864;BME280;26582;47.524;19.012;2024-02-23T12:49:50;97768.34;;;11.07;86.07
40864;BME280;26582;47.524;19.012;2024-02-23T12:52:17;97772.28;;;10.96;87.32
40864;BME280;26582;47.524;19.012;2024-02-23T12:54:44;97766.56;;;11.00;86.59
40864;BME280;26582;47.524;19.012;2024-02-23T12:57:10;97761.84;;;11.10;87.19